Time;durP1;ratioP1;P1;durP2;ratioP2;P2;SDS_P1;SDS_P2;PMS_P1;PMS_P2;Temp;Humidity;BMP_temperature;BMP_pressure;BME280_temperature;BME280_humidity;BME280_pressure;Samples;Min_cycle;Max_cycle;Signal;HPM_P1;HPM_P2
2023/08/15 00:01:08;;;;;;;14.43;4.65;;;20.10;99.90;;;;;;5053817;28;20382;-71
2023/08/15 00:03:33;;;;;;;9.57;2.65;;;20.20;99.90;;;;;;5053538;28;20021;-67
2023/08/15 00:05:59;;;;;;;12.85;5.32;;;20.10;99.90;;;;;;5053753;28;20036;-68
2023/08/15 00:08:24;;;;;;;14.13;4.40;;;20.20;99.90;;;;;;5053800;28;20469;-69
2023/08/15 00:10:50;;;;;;;13.43;5.28;;;20.20;99.90;;;;;;5053513;28;20033;-71
2023/08/15 00:13:15;;;;;;;13.70;4.47;;;20.20;99.90;;;;;;5053096;28;20452;-72
2023/08/15 00:15:41;;;;;;;10.77;2.88;;;20.20;99.90;;;;;;5053506;28;20430;-69
2023/08/15 00:18:07;;;;;;;13.50;4.53;;;20.30;99.90;;;;;;5053555;28;20091;-72
2023/08/15 00:20:33;;;;;;;12.10;4.20;;;20.30;99.90;;;;;;5053563;28;20496;-69
2023/08/15 00:22:58;;;;;;;12.23;3.58;;;20.30;99.90;;;;;;5053637;28;20029;-68
2023/08/15 00:25:24;;;;;;;14.13;4.70;;;20.30;99.90;;;;;;5053530;28;20385;-67
2023/08/15 00:27:50;;;;;;;10.60;3.88;;;20.30;99.90;;;;;;5053056;28;20044;-69
2023/08/15 00:30:15;;;;;;;11.88;3.80;;;20.30;99.90;;;;;;5053272;28;20037;-69
2023/08/15 00:32:41;;;;;;;16.90;4.32;;;20.30;99.90;;;;;;5053386;28;20033;-72
2023/08/15 00:35:07;;;;;;;9.80;2.95;;;20.30;99.90;;;;;;5053177;28;20481;-70
2023/08/15 00:37:33;;;;;;;11.70;4.13;;;20.30;99.90;;;;;;5053999;28;20028;-68
2023/08/15 00:39:59;;;;;;;15.00;3.33;;;20.40;99.90;;;;;;5068266;28;20050;-70
2023/08/15 00:42:25;;;;;;;8.00;2.47;;;20.30;99.90;;;;;;5056790;28;20036;-68
2023/08/15 00:44:50;;;;;;;9.55;3.05;;;20.30;99.90;;;;;;5063802;28;20060;-69
2023/08/15 00:47:16;;;;;;;17.45;6.15;;;20.30;99.90;;;;;;5065502;28;20486;-68
2023/08/15 00:49:43;;;;;;;11.13;3.08;;;20.30;99.90;;;;;;5056584;28;20033;-73
2023/08/15 00:52:11;;;;;;;14.52;3.45;;;20.30;99.90;;;;;;5069447;28;20083;-68
2023/08/15 00:54:37;;;;;;;19.15;4.13;;;20.30;99.90;;;;;;5059862;28;20035;-67
2023/08/15 00:57:05;;;;;;;11.02;3.70;;;20.30;99.90;;;;;;5061606;28;20068;-69
2023/08/15 00:59:30;;;;;;;15.77;3.70;;;20.30;99.90;;;;;;5067444;28;20031;-69
2023/08/15 01:01:58;;;;;;;12.60;2.85;;;20.20;99.90;;;;;;5055672;28;20404;-69
2023/08/15 01:04:24;;;;;;;12.32;3.15;;;20.20;99.90;;;;;;5066955;28;20017;-68
2023/08/15 01:06:50;;;;;;;13.23;3.00;;;20.20;99.90;;;;;;5061222;28;20040;-69
2023/08/15 01:09:16;;;;;;;12.35;3.45;;;20.20;99.90;;;;;;5059576;28;20389;-69
2023/08/15 01:12:11;;;;;;;12.85;3.30;;;20.10;99.90;;;;;;5067915;28;20040;-67
2023/08/15 01:14:59;;;;;;;13.73;3.42;;;20.10;99.90;;;;;;5046159;28;20039;-68
2023/08/15 01:17:40;;;;;;;11.50;3.40;;;20.10;99.90;;;;;;5058427;28;20028;-70
2023/08/15 01:20:12;;;;;;;17.48;3.88;;;20.10;99.90;;;;;;5059269;28;20036;-69
2023/08/15 01:22:43;;;;;;;14.45;3.17;;;20.00;99.90;;;;;;5065033;28;20040;-69
2023/08/15 01:25:09;;;;;;;17.42;3.22;;;20.10;99.90;;;;;;5063765;28;20112;-72
2023/08/15 01:27:34;;;;;;;13.45;3.08;;;20.10;99.90;;;;;;5056779;28;20112;-69
2023/08/15 01:30:00;;;;;;;15.30;3.42;;;20.00;99.90;;;;;;5068372;28;20460;-70
2023/08/15 01:32:42;;;;;;;11.25;3.03;;;20.00;99.90;;;;;;5057766;28;20145;-69
2023/08/15 01:35:19;;;;;;;8.50;2.90;;;20.00;99.90;;;;;;5060468;28;20025;-72
2023/08/15 01:37:50;;;;;;;14.07;3.55;;;20.00;99.90;;;;;;5068663;28;20028;-71
2023/08/15 01:40:22;;;;;;;12.65;3.35;;;20.00;99.90;;;;;;5041099;28;20141;-72
2023/08/15 01:42:49;;;;;;;15.83;4.13;;;19.90;99.90;;;;;;5063331;28;20037;-69
2023/08/15 01:45:15;;;;;;;14.70;3.08;;;19.90;99.90;;;;;;5064216;28;20139;-69
2023/08/15 01:47:42;;;;;;;15.57;3.05;;;19.90;99.90;;;;;;5056054;28;20029;-71
2023/08/15 01:50:08;;;;;;;11.85;3.17;;;20.00;99.90;;;;;;5068318;28;20485;-68
2023/08/15 01:52:33;;;;;;;14.85;3.15;;;19.90;99.90;;;;;;5058490;28;20075;-69
2023/08/15 01:54:59;;;;;;;14.43;2.90;;;19.90;99.90;;;;;;5061411;28;20040;-69
2023/08/15 01:57:24;;;;;;;15.23;3.17;;;19.90;99.90;;;;;;5065502;28;20128;-70
2023/08/15 01:59:50;;;;;;;16.80;3.58;;;19.80;99.90;;;;;;5054783;28;20056;-69
2023/08/15 02:02:15;;;;;;;13.57;3.15;;;19.80;99.90;;;;;;5067583;28;20044;-68
2023/08/15 02:04:41;;;;;;;18.25;3.67;;;19.80;99.90;;;;;;5059862;28;20082;-69
2023/08/15 02:07:06;;;;;;;13.95;3.63;;;19.70;99.90;;;;;;5061019;28;20032;-69
2023/08/15 02:09:32;;;;;;;19.30;3.60;;;19.70;99.90;;;;;;5066959;28;20106;-69
2023/08/15 02:11:57;;;;;;;19.38;3.63;;;19.60;99.90;;;;;;5055358;28;20156;-69
2023/08/15 02:14:23;;;;;;;15.27;2.83;;;19.60;99.90;;;;;;5065095;28;20128;-70
2023/08/15 02:16:49;;;;;;;16.58;3.20;;;19.60;99.90;;;;;;5061034;28;20033;-69
2023/08/15 02:19:14;;;;;;;18.30;3.05;;;19.60;99.90;;;;;;5060177;28;20037;-68
2023/08/15 02:21:40;;;;;;;17.77;3.67;;;19.50;99.90;;;;;;5068074;28;20040;-68
2023/08/15 02:24:05;;;;;;;16.02;4.05;;;19.50;99.90;;;;;;5055804;28;20044;-68
2023/08/15 02:26:31;;;;;;;14.10;3.78;;;19.50;99.90;;;;;;5067180;28;20028;-69
2023/08/15 02:28:57;;;;;;;12.80;3.58;;;19.50;99.90;;;;;;5064969;28;20024;-68
2023/08/15 02:31:26;;;;;;;16.58;3.40;;;19.40;99.90;;;;;;5062225;28;20196;-71
2023/08/15 02:33:51;;;;;;;17.02;3.72;;;19.40;99.90;;;;;;5071927;28;20039;-70
2023/08/15 02:36:18;;;;;;;15.85;3.50;;;19.40;99.90;;;;;;5059788;28;20032;-68
2023/08/15 02:38:44;;;;;;;13.75;3.53;;;19.50;99.90;;;;;;5066869;28;20021;-68
2023/08/15 02:41:09;;;;;;;16.83;3.63;;;19.40;99.90;;;;;;5066431;28;20033;-70
2023/08/15 02:43:35;;;;;;;14.13;3.70;;;19.40;99.90;;;;;;5060089;28;20083;-69
2023/08/15 02:46:00;;;;;;;14.48;3.25;;;19.40;99.90;;;;;;5071196;28;20114;-71
2023/08/15 02:48:26;;;;;;;18.23;4.22;;;19.40;99.90;;;;;;5060750;28;20033;-68
2023/08/15 02:50:51;;;;;;;16.17;3.97;;;19.30;99.90;;;;;;5065856;28;20033;-71
2023/08/15 02:53:17;;;;;;;14.77;3.75;;;19.30;99.90;;;;;;5067686;28;20039;-68
2023/08/15 02:55:43;;;;;;;15.63;3.50;;;19.20;99.90;;;;;;5058805;28;20044;-72
2023/08/15 02:58:08;;;;;;;16.35;3.97;;;19.20;99.90;;;;;;5071700;28;20021;-68
2023/08/15 03:00:35;;;;;;;17.85;3.90;;;19.10;99.90;;;;;;5061501;28;20025;-68
2023/08/15 03:03:01;;;;;;;18.52;3.50;;;19.10;99.90;;;;;;5064288;28;20059;-68
2023/08/15 03:05:26;;;;;;;14.10;3.58;;;19.10;99.90;;;;;;5068726;28;20056;-68
2023/08/15 03:07:52;;;;;;;14.10;3.60;;;19.00;99.90;;;;;;5058568;28;20033;-68
2023/08/15 03:10:17;;;;;;;16.25;3.78;;;19.00;99.90;;;;;;5070142;28;20025;-68
2023/08/15 03:12:43;;;;;;;10.60;3.20;;;18.90;99.90;;;;;;5060923;28;20536;-70
2023/08/15 03:15:09;;;;;;;17.48;4.10;;;18.90;99.90;;;;;;5063130;28;20459;-68
2023/08/15 03:17:35;;;;;;;17.65;3.90;;;18.90;99.90;;;;;;5069772;28;20024;-68
2023/08/15 03:20:00;;;;;;;16.00;4.10;;;18.90;99.90;;;;;;5057786;28;20096;-67
2023/08/15 03:22:26;;;;;;;16.30;3.83;;;18.80;99.90;;;;;;5068726;28;20037;-69
2023/08/15 03:24:51;;;;;;;15.65;4.40;;;18.80;99.90;;;;;;5063606;28;20078;-67
2023/08/15 03:27:17;;;;;;;17.98;4.30;;;18.80;99.90;;;;;;5061477;28;20107;-71
2023/08/15 03:29:42;;;;;;;17.48;3.78;;;18.80;99.90;;;;;;5070444;28;20029;-69
2023/08/15 03:32:08;;;;;;;14.90;3.67;;;18.70;99.90;;;;;;5056325;28;20030;-69
2023/08/15 03:34:34;;;;;;;19.60;4.40;;;18.70;99.90;;;;;;5067612;28;20037;-69
2023/08/15 03:36:59;;;;;;;17.80;4.13;;;18.70;99.90;;;;;;5064148;28;20036;-72
2023/08/15 03:39:26;;;;;;;14.30;3.65;;;18.70;99.90;;;;;;5059608;28;20104;-69
2023/08/15 03:41:51;;;;;;;10.95;3.58;;;18.70;99.90;;;;;;5070917;28;20029;-68
2023/08/15 03:44:17;;;;;;;16.90;4.22;;;18.70;99.90;;;;;;5054473;28;20083;-68
2023/08/15 03:46:42;;;;;;;17.23;4.10;;;18.70;99.90;;;;;;5053724;28;20025;-68
2023/08/15 03:49:08;;;;;;;17.63;4.30;;;18.80;99.90;;;;;;5053546;28;20075;-68
2023/08/15 03:51:33;;;;;;;16.60;5.00;;;18.80;99.90;;;;;;5050374;28;20396;-68
2023/08/15 03:53:59;;;;;;;13.82;3.65;;;18.70;99.90;;;;;;5052916;28;20138;-70
2023/08/15 03:56:24;;;;;;;14.02;3.40;;;18.70;99.90;;;;;;5053204;28;20087;-69
2023/08/15 03:58:50;;;;;;;12.68;3.72;;;18.80;99.90;;;;;;5053389;28;20025;-68
2023/08/15 04:01:15;;;;;;;16.15;4.25;;;18.80;99.90;;;;;;5053401;28;20384;-68
2023/08/15 04:03:41;;;;;;;13.90;3.85;;;18.80;99.90;;;;;;5053378;28;20056;-68
2023/08/15 04:06:07;;;;;;;11.02;3.58;;;18.80;99.90;;;;;;5053250;28;20024;-72
2023/08/15 04:08:32;;;;;;;13.68;3.88;;;18.80;99.90;;;;;;5053242;28;20021;-69
2023/08/15 04:11:00;;;;;;;22.52;4.25;;;18.80;99.90;;;;;;5052484;28;20029;-68
2023/08/15 04:13:25;;;;;;;13.40;3.75;;;18.80;99.90;;;;;;5053820;28;20091;-70
2023/08/15 04:15:51;;;;;;;13.02;3.63;;;18.80;99.90;;;;;;5053935;28;20029;-68
2023/08/15 04:18:17;;;;;;;17.02;4.18;;;18.80;99.90;;;;;;5053585;28;20502;-68
2023/08/15 04:20:43;;;;;;;11.15;3.40;;;18.80;99.90;;;;;;5053692;28;20100;-70
2023/08/15 04:23:09;;;;;;;15.95;3.80;;;18.70;99.90;;;;;;5053911;28;20033;-68
2023/08/15 04:25:37;;;;;;;13.80;3.70;;;18.80;99.90;;;;;;5053361;28;20031;-67
2023/08/15 04:28:04;;;;;;;17.60;3.92;;;18.70;99.90;;;;;;5053402;28;20424;-67
2023/08/15 04:30:30;;;;;;;12.80;3.83;;;18.70;99.90;;;;;;5053455;28;20051;-69
2023/08/15 04:32:58;;;;;;;12.32;3.50;;;18.70;99.90;;;;;;5053987;28;20465;-71
2023/08/15 04:35:24;;;;;;;14.50;3.70;;;18.70;99.90;;;;;;5068340;28;20060;-68
2023/08/15 04:37:50;;;;;;;16.20;4.05;;;18.70;99.90;;;;;;5055268;28;20060;-68
2023/08/15 04:40:29;;;;;;;13.43;4.22;;;18.70;99.90;;;;;;5066665;28;20097;-67
2023/08/15 04:42:55;;;;;;;13.68;3.88;;;18.70;99.90;;;;;;5064433;28;20480;-69
2023/08/15 04:45:20;;;;;;;12.85;4.25;;;18.70;99.90;;;;;;5057675;28;20053;-67
2023/08/15 04:47:46;;;;;;;10.73;3.42;;;18.70;99.90;;;;;;5069204;28;20025;-68
2023/08/15 04:50:11;;;;;;;14.65;4.07;;;18.70;99.90;;;;;;5057456;28;20029;-70
2023/08/15 04:52:37;;;;;;;19.27;3.90;;;18.70;99.90;;;;;;5062396;28;20021;-70
2023/08/15 04:55:04;;;;;;;16.90;3.92;;;18.70;99.90;;;;;;5065487;28;20028;-70
2023/08/15 04:57:29;;;;;;;15.63;3.92;;;18.80;99.90;;;;;;5056401;28;20032;-70
2023/08/15 04:59:55;;;;;;;18.08;3.95;;;18.80;99.90;;;;;;5068141;28;20029;-71
2023/08/15 05:02:20;;;;;;;17.02;3.78;;;18.80;99.90;;;;;;5059486;28;20047;-68
2023/08/15 05:04:46;;;;;;;18.77;4.05;;;18.80;99.90;;;;;;5062413;28;20122;-68
2023/08/15 05:07:12;;;;;;;12.65;3.22;;;18.90;99.90;;;;;;5065989;28;20032;-67
2023/08/15 05:09:39;;;;;;;17.33;3.78;;;19.10;99.90;;;;;;5055649;28;20029;-69
2023/08/15 05:12:05;;;;;;;12.80;3.75;;;19.10;99.90;;;;;;5067697;28;20702;-70
2023/08/15 05:14:30;;;;;;;13.93;3.65;;;19.30;99.90;;;;;;5060943;28;20032;-70
2023/08/15 05:16:56;;;;;;;15.88;3.33;;;19.40;99.90;;;;;;5059524;28;20068;-70
2023/08/15 05:19:22;;;;;;;14.05;3.40;;;19.40;99.90;;;;;;5067804;28;20024;-67
2023/08/15 05:21:47;;;;;;;11.10;3.40;;;19.50;99.90;;;;;;5055096;28;20037;-68
2023/08/15 05:24:13;;;;;;;11.63;2.75;;;19.60;99.90;;;;;;5066870;28;20100;-68
2023/08/15 05:26:38;;;;;;;11.35;3.30;;;19.60;99.90;;;;;;5061909;28;20029;-71
2023/08/15 05:29:04;;;;;;;12.90;2.90;;;19.70;99.90;;;;;;5072625;28;20029;-68
2023/08/15 05:31:29;;;;;;;10.85;2.70;;;19.80;99.90;;;;;;5056586;28;20380;-68
2023/08/15 05:33:55;;;;;;;11.35;2.65;;;19.90;99.90;;;;;;5059960;28;20025;-68
2023/08/15 05:36:20;;;;;;;11.98;2.85;;;19.90;99.90;;;;;;5065661;28;20037;-68
2023/08/15 05:38:46;;;;;;;9.35;2.65;;;20.00;99.90;;;;;;5062519;28;20029;-68
2023/08/15 05:41:11;;;;;;;11.07;2.50;;;20.10;99.90;;;;;;5058008;28;20036;-68
2023/08/15 05:43:37;;;;;;;10.73;2.83;;;20.20;99.90;;;;;;5068444;28;20028;-68
2023/08/15 05:46:02;;;;;;;9.98;2.15;;;20.40;99.90;;;;;;5056053;28;20052;-68
2023/08/15 05:48:30;;;;;;;9.25;2.72;;;20.40;99.90;;;;;;5064133;28;20385;-67
2023/08/15 05:50:55;;;;;;;11.30;2.63;;;20.50;99.90;;;;;;5063059;28;20035;-71
2023/08/15 05:53:21;;;;;;;10.23;2.58;;;20.60;99.90;;;;;;5057313;28;20029;-68
2023/08/15 05:55:46;;;;;;;10.30;3.08;;;20.70;99.90;;;;;;5068479;28;20154;-70
2023/08/15 05:58:12;;;;;;;8.93;2.40;;;20.70;99.90;;;;;;5057682;28;20025;-70
2023/08/15 06:00:38;;;;;;;12.43;2.55;;;20.80;99.90;;;;;;5063128;28;20021;-68
2023/08/15 06:03:05;;;;;;;9.75;2.60;;;20.80;99.90;;;;;;5068501;28;20464;-69
2023/08/15 06:05:30;;;;;;;12.52;2.78;;;20.90;99.90;;;;;;5059719;28;20017;-71
2023/08/15 06:07:56;;;;;;;10.20;2.47;;;21.00;99.90;;;;;;5072430;28;20108;-69
2023/08/15 06:10:22;;;;;;;11.05;2.65;;;21.10;99.90;;;;;;5062897;28;20103;-69
2023/08/15 06:12:48;;;;;;;10.13;2.60;;;21.10;99.90;;;;;;5065043;28;20036;-69
2023/08/15 06:15:14;;;;;;;10.55;2.50;;;21.10;99.90;;;;;;5070038;28;20028;-69
2023/08/15 06:17:41;;;;;;;10.88;2.70;;;21.00;99.90;;;;;;5059224;28;20509;-73
2023/08/15 06:20:07;;;;;;;9.05;2.42;;;21.10;99.90;;;;;;5070855;28;20024;-69
2023/08/15 06:22:33;;;;;;;10.05;2.60;;;21.20;99.90;;;;;;5064135;28;20086;-74
2023/08/15 06:24:58;;;;;;;10.77;2.28;;;21.40;99.90;;;;;;5063915;28;20024;-72
2023/08/15 06:27:24;;;;;;;10.70;2.40;;;21.60;99.90;;;;;;5071161;28;20479;-69
2023/08/15 06:29:50;;;;;;;12.05;2.67;;;21.70;99.90;;;;;;5072993;28;20074;-71
2023/08/15 06:32:29;;;;;;;7.20;2.40;;;21.90;99.90;;;;;;5060472;28;20035;-68
2023/08/15 06:34:55;;;;;;;12.32;3.08;;;22.10;99.90;;;;;;5064417;28;20481;-68
2023/08/15 06:37:21;;;;;;;15.98;2.78;;;22.10;99.90;;;;;;5070606;28;20071;-71
2023/08/15 06:39:46;;;;;;;10.73;2.88;;;22.20;99.90;;;;;;5057157;28;20488;-66
2023/08/15 06:42:13;;;;;;;12.82;2.67;;;22.10;99.90;;;;;;5069584;28;20037;-72
2023/08/15 06:44:38;;;;;;;9.77;2.70;;;22.10;99.90;;;;;;5064409;28;20155;-72
2023/08/15 06:47:04;;;;;;;11.90;2.72;;;22.00;99.90;;;;;;5062443;28;20106;-69
2023/08/15 06:49:30;;;;;;;12.43;2.42;;;22.00;99.90;;;;;;5071174;28;20021;-71
2023/08/15 06:51:55;;;;;;;9.13;2.40;;;21.80;99.90;;;;;;5058847;28;20021;-72
2023/08/15 06:54:21;;;;;;;15.82;2.78;;;21.70;99.90;;;;;;5068508;28;20731;-68
2023/08/15 06:56:46;;;;;;;12.30;3.08;;;21.70;99.90;;;;;;5064227;28;20383;-67
2023/08/15 06:59:12;;;;;;;11.90;2.50;;;21.80;99.90;;;;;;5061472;28;20040;-67
2023/08/15 07:01:38;;;;;;;10.52;2.53;;;21.90;99.90;;;;;;5071295;28;20032;-74
2023/08/15 07:04:03;;;;;;;9.93;2.55;;;21.90;99.90;;;;;;5059697;28;20067;-69
2023/08/15 07:06:29;;;;;;;9.02;2.55;;;21.90;99.90;;;;;;5067117;28;20358;-68
2023/08/15 07:08:54;;;;;;;13.65;2.40;;;22.10;99.90;;;;;;5066164;28;20073;-69
2023/08/15 07:11:20;;;;;;;12.60;2.10;;;22.60;99.90;;;;;;5059634;28;20116;-72
2023/08/15 07:13:46;;;;;;;9.10;2.40;;;22.90;99.90;;;;;;5070396;28;20122;-70
2023/08/15 07:16:11;;;;;;;10.15;2.33;;;23.00;99.90;;;;;;5058827;28;20120;-69
2023/08/15 07:18:37;;;;;;;7.78;1.98;;;23.10;99.90;;;;;;5065524;28;20029;-69
2023/08/15 07:21:03;;;;;;;9.90;1.90;;;23.30;99.90;;;;;;5067286;28;20035;-73
2023/08/15 07:23:30;;;;;;;10.35;2.08;;;23.70;99.90;;;;;;5058371;28;20147;-71
2023/08/15 07:25:56;;;;;;;9.65;1.83;;;24.10;99.90;;;;;;5070779;28;20496;-69
2023/08/15 07:28:22;;;;;;;10.85;2.20;;;24.60;99.90;;;;;;5061458;28;20032;-73
2023/08/15 07:30:48;;;;;;;8.77;1.88;;;25.00;99.90;;;;;;5063871;28;20558;-70
2023/08/15 07:33:14;;;;;;;7.18;1.92;;;25.00;99.90;;;;;;5068811;28;20119;-69
2023/08/15 07:35:40;;;;;;;7.40;2.00;;;24.90;99.90;;;;;;5057875;28;20025;-68
2023/08/15 07:38:06;;;;;;;9.10;2.08;;;24.60;99.90;;;;;;5069659;28;20021;-68
2023/08/15 07:40:32;;;;;;;8.20;1.90;;;24.30;99.90;;;;;;5062430;28;20036;-71
2023/08/15 07:42:58;;;;;;;11.63;2.20;;;24.10;99.90;;;;;;5062497;28;20443;-68
2023/08/15 07:45:23;;;;;;;10.15;2.35;;;23.90;99.90;;;;;;5069694;28;20056;-69
2023/08/15 07:47:52;;;;;;;13.05;2.20;;;23.70;99.90;;;;;;5054786;28;20124;-68
2023/08/15 07:50:22;;;;;;;12.10;2.45;;;23.60;99.90;;;;;;5055881;28;20033;-68
2023/08/15 07:52:49;;;;;;;9.90;2.42;;;23.70;99.90;;;;;;5054245;28;20032;-69
2023/08/15 07:55:15;;;;;;;8.52;2.30;;;23.80;99.90;;;;;;5068844;28;20032;-69
2023/08/15 07:57:43;;;;;;;8.32;2.30;;;23.80;99.90;;;;;;5058535;28;20492;-72
2023/08/15 08:00:10;;;;;;;9.73;2.30;;;23.80;99.90;;;;;;5069004;28;20051;-68
2023/08/15 08:02:36;;;;;;;6.53;1.98;;;23.70;99.90;;;;;;5063525;28;20124;-68
2023/08/15 08:05:03;;;;;;;9.18;2.10;;;23.60;99.90;;;;;;5061471;28;20048;-68
2023/08/15 08:07:28;;;;;;;9.70;1.90;;;23.60;99.90;;;;;;5070966;28;20046;-68
2023/08/15 08:09:54;;;;;;;11.10;2.55;;;23.40;99.90;;;;;;5059100;28;20103;-69
2023/08/15 08:12:19;;;;;;;14.25;2.67;;;23.30;99.90;;;;;;5068235;28;20134;-68
2023/08/15 08:14:45;;;;;;;8.50;2.38;;;23.10;99.90;;;;;;5063961;28;20150;-68
2023/08/15 08:17:10;;;;;;;9.05;2.33;;;23.00;99.90;;;;;;5059939;28;20146;-68
2023/08/15 08:19:36;;;;;;;7.57;2.25;;;23.00;99.90;;;;;;5069873;28;20093;-68
2023/08/15 08:22:01;;;;;;;9.65;2.47;;;22.90;99.90;;;;;;5057401;28;20125;-71
2023/08/15 08:24:27;;;;;;;11.45;2.88;;;22.90;99.90;;;;;;5065724;28;20033;-70
2023/08/15 08:26:54;;;;;;;18.88;4.15;;;23.00;99.90;;;;;;5055922;28;20029;-68
2023/08/15 08:29:19;;;;;;;10.57;2.80;;;23.10;99.90;;;;;;5054026;28;20029;-69
2023/08/15 08:31:46;;;;;;;8.45;2.47;;;23.20;99.90;;;;;;5069580;28;20033;-70
2023/08/15 08:34:15;;;;;;;10.80;3.20;;;23.20;99.90;;;;;;5058945;28;20017;-68
2023/08/15 08:36:41;;;;;;;13.65;3.33;;;23.20;99.90;;;;;;5063793;28;20147;-69
2023/08/15 08:39:09;;;;;;;18.95;5.85;;;23.20;99.90;;;;;;5066296;28;20024;-68
2023/08/15 08:41:38;;;;;;;11.20;3.13;;;23.20;99.90;;;;;;5056356;28;20487;-71
2023/08/15 08:44:05;;;;;;;12.10;2.90;;;23.20;99.90;;;;;;5068467;28;20025;-69
2023/08/15 08:46:31;;;;;;;12.40;2.50;;;23.20;99.90;;;;;;5060778;28;20052;-69
2023/08/15 08:48:58;;;;;;;16.50;3.53;;;23.00;99.90;;;;;;5061028;28;20055;-67
2023/08/15 08:51:27;;;;;;;15.98;3.97;;;22.90;99.90;;;;;;5049279;28;20394;-69
2023/08/15 08:53:53;;;;;;;16.67;4.07;;;22.80;99.90;;;;;;5069446;28;20018;-71
2023/08/15 08:56:22;;;;;;;13.57;3.22;;;22.80;99.90;;;;;;5059230;28;20033;-68
2023/08/15 08:59:01;;;;;;;15.38;3.33;;;22.70;99.90;;;;;;5059235;28;20354;-68
2023/08/15 09:01:31;;;;;;;14.32;3.72;;;22.70;99.90;;;;;;5056260;28;20446;-67
2023/08/15 09:03:57;;;;;;;14.35;3.72;;;22.50;99.90;;;;;;5066160;28;20020;-66
2023/08/15 09:06:26;;;;;;;16.35;3.80;;;22.50;99.90;;;;;;5059397;28;20400;-64
2023/08/15 09:08:53;;;;;;;12.25;3.58;;;22.30;99.90;;;;;;5061410;28;20086;-66
2023/08/15 09:11:20;;;;;;;14.98;5.03;;;22.00;99.90;;;;;;5052149;28;20044;-66
2023/08/15 09:13:49;;;;;;;12.95;3.97;;;21.80;99.90;;;;;;5051309;28;20373;-66
2023/08/15 09:16:15;;;;;;;13.02;4.20;;;21.60;99.90;;;;;;5051540;28;20036;-65
2023/08/15 09:18:44;;;;;;;14.73;3.67;;;21.50;99.90;;;;;;5051429;28;20047;-66
2023/08/15 09:21:13;;;;;;;12.95;4.43;;;21.50;99.90;;;;;;5050508;28;20060;-66
2023/08/15 09:23:41;;;;;;;13.27;3.95;;;21.60;99.90;;;;;;5052194;28;20029;-66
2023/08/15 09:26:16;;;;;;;16.08;4.47;;;21.70;99.90;;;;;;5053109;28;20025;-66
2023/08/15 09:28:42;;;;;;;16.13;4.18;;;21.80;99.90;;;;;;5051375;28;20028;-67
2023/08/15 09:31:10;;;;;;;11.55;3.97;;;21.90;99.90;;;;;;5049721;28;20385;-67
2023/08/15 09:33:37;;;;;;;9.27;3.22;;;22.10;99.90;;;;;;5052259;28;20021;-67
2023/08/15 09:36:05;;;;;;;13.88;4.50;;;22.40;99.90;;;;;;5048962;28;20036;-67
2023/08/15 09:38:30;;;;;;;13.80;3.28;;;22.60;99.90;;;;;;5052000;28;20025;-68
2023/08/15 09:40:57;;;;;;;15.90;4.13;;;22.80;99.90;;;;;;5050656;28;20044;-67
2023/08/15 09:43:22;;;;;;;11.30;3.10;;;22.70;99.90;;;;;;5051813;28;20108;-67
2023/08/15 09:45:49;;;;;;;10.75;3.13;;;22.50;99.90;;;;;;5050774;28;20132;-67
2023/08/15 09:48:17;;;;;;;12.38;3.85;;;22.40;99.90;;;;;;5058061;28;20055;-66
2023/08/15 09:50:44;;;;;;;10.65;2.97;;;22.20;99.90;;;;;;5061082;28;20037;-67
2023/08/15 09:53:10;;;;;;;14.13;4.50;;;22.00;99.90;;;;;;5048641;28;20481;-66
2023/08/15 09:55:36;;;;;;;10.77;4.00;;;21.90;99.90;;;;;;5051723;28;20032;-67
2023/08/15 09:58:03;;;;;;;15.07;4.80;;;21.70;99.90;;;;;;5051018;28;20033;-67
2023/08/15 10:00:30;;;;;;;11.00;3.08;;;21.60;99.90;;;;;;5051097;28;20025;-66
2023/08/15 10:03:00;;;;;;;7.57;2.80;;;21.70;99.90;;;;;;5050776;28;20041;-66
2023/08/15 10:05:31;;;;;;;12.52;3.33;;;21.70;99.90;;;;;;5067803;28;20032;-66
2023/08/15 10:07:58;;;;;;;11.48;3.45;;;21.80;99.90;;;;;;5068504;28;20380;-67
2023/08/15 10:10:26;;;;;;;12.15;4.15;;;21.80;99.90;;;;;;5060146;28;20029;-67
2023/08/15 10:12:53;;;;;;;17.25;4.95;;;21.80;99.90;;;;;;5056196;28;20025;-67
2023/08/15 10:15:21;;;;;;;22.10;4.75;;;21.70;99.90;;;;;;5052840;28;20103;-67
2023/08/15 10:17:47;;;;;;;17.88;4.72;;;21.70;99.90;;;;;;5054285;28;20021;-66
2023/08/15 10:20:17;;;;;;;10.60;4.32;;;21.70;99.90;;;;;;5053005;28;20381;-65
2023/08/15 10:22:42;;;;;;;13.23;3.60;;;21.70;99.90;;;;;;5052581;28;20389;-65
2023/08/15 10:25:20;;;;;;;10.93;3.15;;;21.80;99.90;;;;;;5051783;28;20037;-66
2023/08/15 10:27:50;;;;;;;9.15;3.00;;;21.90;99.90;;;;;;5053690;28;20033;-68
2023/08/15 10:30:40;;;;;;;9.30;2.78;;;22.00;99.90;;;;;;5065661;28;20029;-67
2023/08/15 10:33:16;;;;;;;11.73;3.63;;;22.10;99.90;;;;;;5061085;28;20037;-67
2023/08/15 10:35:56;;;;;;;5.63;2.20;;;22.40;99.90;;;;;;5054235;28;20035;-67
2023/08/15 10:38:30;;;;;;;13.35;3.17;;;22.90;99.90;;;;;;5064002;28;20021;-67
2023/08/15 10:41:07;;;;;;;7.78;2.25;;;23.60;99.90;;;;;;5062700;28;20040;-69
2023/08/15 10:43:34;;;;;;;12.23;2.35;;;24.20;99.90;;;;;;5054336;28;20028;-65
2023/08/15 10:46:02;;;;;;;6.63;2.00;;;24.70;99.90;;;;;;5066965;28;20045;-66
2023/08/15 10:48:48;;;;;;;6.40;1.90;;;25.70;99.90;;;;;;5058787;28;20021;-68
2023/08/15 10:51:18;;;;;;;5.68;2.10;;;26.70;99.90;;;;;;5059358;28;20032;-67
2023/08/15 10:53:56;;;;;;;6.60;1.77;;;27.90;99.90;;;;;;5069637;28;20376;-68
2023/08/15 10:56:24;;;;;;;4.82;2.22;;;29.30;99.90;;;;;;5060603;28;20472;-67
2023/08/15 10:58:50;;;;;;;7.55;2.10;;;30.00;99.00;;;;;;5062348;28;20116;-67
2023/08/15 11:01:18;;;;;;;6.15;1.80;;;30.20;97.70;;;;;;5053600;28;20094;-69
2023/08/15 11:03:46;;;;;;;3.30;1.38;;;30.70;96.50;;;;;;5070151;28;20031;-66
2023/08/15 11:06:12;;;;;;;7.57;1.67;;;31.00;95.70;;;;;;5059348;28;20030;-68
2023/08/15 11:08:49;;;;;;;7.35;1.50;;;31.40;95.50;;;;;;5065165;28;20083;-66
2023/08/15 11:11:16;;;;;;;4.22;1.30;;;31.80;95.30;;;;;;5069029;28;20086;-67
2023/08/15 11:13:47;;;;;;;6.28;1.50;;;32.90;93.50;;;;;;5058121;28;20033;-67
2023/08/15 11:16:17;;;;;;;5.13;1.27;;;33.80;91.80;;;;;;5069578;28;20053;-67
2023/08/15 11:18:43;;;;;;;4.63;1.33;;;34.20;91.70;;;;;;5064590;28;20028;-67
2023/08/15 11:21:11;;;;;;;3.10;1.40;;;34.60;90.70;;;;;;5061657;28;20031;-67
2023/08/15 11:23:37;;;;;;;4.25;1.83;;;35.00;90.50;;;;;;5071133;28;20108;-68
2023/08/15 11:26:08;;;;;;;3.40;1.52;;;34.70;90.00;;;;;;5058687;28;20028;-68
2023/08/15 11:28:35;;;;;;;4.75;1.30;;;34.30;90.30;;;;;;5065915;28;20036;-67
2023/08/15 11:31:08;;;;;;;4.20;1.23;;;34.60;90.10;;;;;;5066903;28;20581;-67
2023/08/15 11:33:34;;;;;;;2.15;1.02;;;35.20;88.80;;;;;;5057952;28;20082;-67
2023/08/15 11:36:00;;;;;;;6.32;1.30;;;35.90;89.10;;;;;;5070408;28;20431;-68
2023/08/15 11:38:30;;;;;;;4.63;1.30;;;36.20;87.90;;;;;;5062110;28;20032;-66
2023/08/15 11:40:57;;;;;;;4.88;1.45;;;36.00;86.90;;;;;;5062424;28;20044;-67
2023/08/15 11:43:25;;;;;;;5.55;1.40;;;35.70;86.20;;;;;;5069851;28;20020;-67
2023/08/15 11:45:50;;;;;;;3.13;1.40;;;35.20;88.40;;;;;;5057682;28;20178;-67
2023/08/15 11:48:17;;;;;;;5.22;1.42;;;35.30;88.40;;;;;;5066404;28;20033;-69
2023/08/15 11:50:42;;;;;;;6.65;1.60;;;35.20;88.10;;;;;;5053467;28;20375;-67
2023/08/15 11:53:10;;;;;;;5.40;1.40;;;35.50;87.50;;;;;;5067161;28;20131;-71
2023/08/15 11:55:36;;;;;;;5.75;1.40;;;35.90;86.10;;;;;;5057274;28;20032;-68
2023/08/15 11:58:03;;;;;;;3.70;1.40;;;35.50;85.10;;;;;;5069451;28;20040;-67
2023/08/15 12:00:29;;;;;;;4.55;1.50;;;35.40;85.50;;;;;;5061148;28;20071;-68
2023/08/15 12:02:55;;;;;;;6.15;1.35;;;35.20;85.50;;;;;;5061262;28;20068;-67
2023/08/15 12:05:21;;;;;;;3.42;1.33;;;35.10;86.40;;;;;;5055449;28;20025;-67
2023/08/15 12:07:48;;;;;;;4.72;1.50;;;35.40;86.90;;;;;;5070054;28;20037;-67
2023/08/15 12:10:15;;;;;;;4.40;1.70;;;35.70;85.10;;;;;;5059568;28;20027;-67
2023/08/15 12:12:46;;;;;;;4.55;1.20;;;36.00;84.10;;;;;;5064252;28;20029;-67
2023/08/15 12:15:14;;;;;;;6.70;1.45;;;35.80;84.20;;;;;;5067662;28;20436;-67
2023/08/15 12:17:40;;;;;;;6.18;1.60;;;35.30;85.00;;;;;;5057076;28;20068;-69
2023/08/15 12:20:08;;;;;;;3.63;1.27;;;35.40;85.80;;;;;;5068599;28;20052;-67
2023/08/15 12:22:34;;;;;;;4.43;1.30;;;35.60;84.40;;;;;;5061445;28;20040;-68
2023/08/15 12:24:59;;;;;;;3.13;1.23;;;35.20;84.20;;;;;;5060961;28;20033;-69
2023/08/15 12:27:25;;;;;;;6.72;1.77;;;34.70;84.80;;;;;;5069118;28;20050;-67
2023/08/15 12:29:51;;;;;;;5.30;1.70;;;34.80;85.60;;;;;;5056601;28;20075;-67
2023/08/15 12:32:17;;;;;;;5.75;1.70;;;34.80;86.30;;;;;;5066520;28;20063;-70
2023/08/15 12:34:42;;;;;;;4.47;1.85;;;35.00;86.60;;;;;;5062948;28;20380;-67
2023/08/15 12:37:08;;;;;;;3.92;1.80;;;35.10;85.10;;;;;;5059942;28;20025;-67
2023/08/15 12:39:34;;;;;;;7.70;1.60;;;35.40;85.50;;;;;;5069285;28;20025;-67